createdAt,value
2019-03-17T00:00:08.466Z,21.09
2019-03-17T00:01:08.444Z,21.21
2019-03-17T00:02:08.433Z,21.23
2019-03-17T00:03:08.426Z,21.19
2019-03-17T00:04:08.686Z,21.17
2019-03-17T00:05:08.404Z,21.17
2019-03-17T00:06:08.390Z,21.21
2019-03-17T00:07:08.379Z,21.14
2019-03-17T00:08:08.368Z,21.20
2019-03-17T00:09:08.361Z,21.19
2019-03-17T00:10:08.621Z,21.19
2019-03-17T00:11:08.333Z,21.14
2019-03-17T00:12:08.324Z,21.09
2019-03-17T00:13:08.311Z,21.14
2019-03-17T00:14:08.299Z,21.20
2019-03-17T00:15:08.293Z,21.16
2019-03-17T00:16:08.603Z,21.19
2019-03-17T00:17:08.266Z,21.14
2019-03-17T00:18:08.255Z,21.20
2019-03-17T00:19:08.248Z,21.14
2019-03-17T00:20:08.233Z,21.16
2019-03-17T00:21:08.222Z,21.23
2019-03-17T00:22:08.238Z,21.17
2019-03-17T00:23:08.203Z,21.16
2019-03-17T00:24:08.190Z,21.14
2019-03-17T00:25:09.827Z,21.21
2019-03-17T00:26:08.166Z,21.11
2019-03-17T00:27:08.156Z,21.16
2019-03-17T00:28:08.429Z,21.14
2019-03-17T00:29:08.134Z,21.19
2019-03-17T00:30:08.122Z,21.14
2019-03-17T00:31:08.115Z,21.16
2019-03-17T00:32:08.101Z,21.13
2019-03-17T00:33:08.088Z,21.13
2019-03-17T00:34:08.089Z,21.11
2019-03-17T00:35:08.069Z,21.13
2019-03-17T00:36:08.060Z,21.11
2019-03-17T00:37:08.050Z,21.16
2019-03-17T00:38:08.033Z,21.14
2019-03-17T00:39:08.022Z,21.14
2019-03-17T00:40:08.292Z,21.09
2019-03-17T00:41:08.009Z,21.11
2019-03-17T00:42:07.988Z,21.14
2019-03-17T00:43:07.979Z,21.14
2019-03-17T00:44:07.970Z,21.13
2019-03-17T00:45:07.956Z,21.17
2019-03-17T00:46:07.950Z,21.11
2019-03-17T00:47:10.642Z,21.11
2019-03-17T00:48:07.933Z,21.11
2019-03-17T00:49:07.911Z,21.16
2019-03-17T00:50:07.900Z,21.09
2019-03-17T00:51:07.892Z,21.17
2019-03-17T00:52:08.213Z,21.14
2019-03-17T00:53:07.868Z,21.09
2019-03-17T00:54:07.855Z,21.16
2019-03-17T00:55:07.844Z,21.09
2019-03-17T00:56:07.832Z,21.19
2019-03-17T00:57:07.823Z,21.13
2019-03-17T00:58:07.817Z,21.08
2019-03-17T00:59:07.803Z,21.11
2019-03-17T01:00:07.788Z,21.11
2019-03-17T01:01:07.783Z,21.09
2019-03-17T01:02:07.767Z,21.19
2019-03-17T01:03:07.755Z,21.09
2019-03-17T01:04:08.238Z,21.16
2019-03-17T01:05:07.736Z,21.11
2019-03-17T01:06:07.722Z,21.08
2019-03-17T01:07:07.711Z,21.11
2019-03-17T01:08:07.700Z,21.13
2019-03-17T01:09:07.690Z,21.11
2019-03-17T01:10:07.964Z,21.11
2019-03-17T01:11:07.668Z,21.06
2019-03-17T01:12:07.656Z,21.09
2019-03-17T01:13:07.643Z,21.08
2019-03-17T01:14:07.638Z,21.11
2019-03-17T01:15:07.625Z,21.13
2019-03-17T01:16:07.896Z,21.13
2019-03-17T01:17:07.601Z,21.14
2019-03-17T01:18:07.589Z,21.08
2019-03-17T01:19:07.577Z,21.11
2019-03-17T01:20:07.590Z,21.13
2019-03-17T01:21:07.557Z,21.08
2019-03-17T01:22:07.564Z,21.13
2019-03-17T01:23:07.534Z,21.06
2019-03-17T01:24:10.197Z,21.13
2019-03-17T01:25:07.511Z,21.11
2019-03-17T01:26:07.501Z,21.09
2019-03-17T01:27:07.489Z,21.08
2019-03-17T01:28:07.763Z,21.08
2019-03-17T01:29:07.466Z,21.06
2019-03-17T01:30:07.455Z,21.05
2019-03-17T01:31:07.443Z,21.08
2019-03-17T01:32:07.433Z,21.08
2019-03-17T01:33:07.426Z,21.06
2019-03-17T01:34:07.748Z,21.13
2019-03-17T01:35:09.489Z,21.06
2019-03-17T01:36:07.388Z,21.16
2019-03-17T01:37:07.378Z,21.06
2019-03-17T01:38:07.366Z,21.11
2019-03-17T01:39:07.354Z,21.06
2019-03-17T01:40:07.364Z,21.05
2019-03-17T01:41:07.332Z,21.16
2019-03-17T01:42:07.321Z,21.09
2019-03-17T01:43:07.316Z,21.13
2019-03-17T01:44:07.301Z,21.09
2019-03-17T01:45:07.288Z,21.11
2019-03-17T01:46:07.287Z,21.11
2019-03-17T01:47:07.269Z,21.11
2019-03-17T01:48:07.254Z,21.08
2019-03-17T01:49:07.258Z,21.08
2019-03-17T01:50:07.233Z,21.11
2019-03-17T01:51:07.222Z,21.09
2019-03-17T01:52:07.222Z,21.14
2019-03-17T01:53:07.200Z,21.16
2019-03-17T01:54:07.187Z,21.13
2019-03-17T01:55:07.176Z,21.06
2019-03-17T01:56:07.169Z,21.11
2019-03-17T01:57:07.159Z,21.11
2019-03-17T01:58:07.438Z,21.09
2019-03-17T01:59:07.133Z,21.04
2019-03-17T02:00:07.124Z,21.11
2019-03-17T02:01:07.112Z,21.16
2019-03-17T02:02:07.106Z,21.13
2019-03-17T02:03:07.087Z,21.05
2019-03-17T02:04:07.086Z,21.17
2019-03-17T02:05:07.072Z,21.08
2019-03-17T02:06:07.059Z,21.09
2019-03-17T02:07:07.043Z,21.04
2019-03-17T02:08:07.039Z,21.09
2019-03-17T02:09:07.026Z,21.06
2019-03-17T02:10:07.277Z,21.08
2019-03-17T02:11:07.001Z,21.08
2019-03-17T02:12:06.987Z,21.11
2019-03-17T02:13:06.978Z,21.08
2019-03-17T02:14:06.967Z,21.06
2019-03-17T02:15:06.955Z,21.08
2019-03-17T02:16:06.965Z,21.04
2019-03-17T02:17:06.931Z,21.05
2019-03-17T02:18:06.921Z,21.06
2019-03-17T02:19:06.911Z,21.06
2019-03-17T02:20:06.903Z,21.09
2019-03-17T02:21:06.888Z,21.09
2019-03-17T02:22:07.205Z,21.11
2019-03-17T02:23:06.871Z,21.08
2019-03-17T02:24:06.854Z,21.05
2019-03-17T02:25:06.848Z,21.02
2019-03-17T02:26:06.830Z,21.06
2019-03-17T02:27:06.826Z,21.11
2019-03-17T02:28:06.825Z,21.09
2019-03-17T02:29:06.798Z,21.05
2019-03-17T02:30:06.793Z,21.05
2019-03-17T02:31:06.784Z,21.09
2019-03-17T02:32:06.900Z,21.06
2019-03-17T02:33:06.755Z,21.11
2019-03-17T02:34:06.752Z,21.02
2019-03-17T02:35:06.732Z,21.08
2019-03-17T02:36:06.721Z,21.09
2019-03-17T02:37:06.711Z,21.02
2019-03-17T02:38:06.700Z,21.02
2019-03-17T02:39:06.749Z,21.11
2019-03-17T02:40:06.702Z,21.06
2019-03-17T02:41:06.673Z,21.08
2019-03-17T02:42:06.658Z,21.06
2019-03-17T02:43:06.649Z,21.05
2019-03-17T02:44:06.631Z,21.05
2019-03-17T02:45:06.620Z,20.99
2019-03-17T02:46:06.636Z,21.13
2019-03-17T02:47:06.598Z,21.06
2019-03-17T02:48:06.589Z,21.02
2019-03-17T02:49:06.577Z,21.05
2019-03-17T02:50:06.566Z,21.04
2019-03-17T02:51:06.554Z,21.11
2019-03-17T02:52:06.874Z,21.06
2019-03-17T02:53:06.535Z,21.06
2019-03-17T02:54:06.525Z,21.05
2019-03-17T02:55:06.509Z,21.05
2019-03-17T02:56:06.502Z,21.02
2019-03-17T02:57:06.486Z,21.01
2019-03-17T02:58:06.755Z,21.04
2019-03-17T02:59:06.465Z,21.05
2019-03-17T03:00:06.455Z,21.06
2019-03-17T03:01:06.443Z,21.11
2019-03-17T03:02:06.442Z,21.06
2019-03-17T03:03:06.421Z,21.09
2019-03-17T03:04:06.716Z,21.01
2019-03-17T03:05:06.401Z,21.11
2019-03-17T03:06:06.398Z,21.02
2019-03-17T03:07:06.375Z,21.01
2019-03-17T03:08:06.368Z,21.02
2019-03-17T03:09:06.358Z,21.06
2019-03-17T03:10:06.353Z,21.05
2019-03-17T03:11:06.340Z,21.06
2019-03-17T03:12:06.323Z,21.04
2019-03-17T03:13:06.312Z,21.08
2019-03-17T03:14:06.305Z,21.05
2019-03-17T03:15:06.289Z,21.05
2019-03-17T03:16:06.583Z,21.02
2019-03-17T03:17:06.267Z,21.05
2019-03-17T03:18:06.255Z,21.05
2019-03-17T03:19:06.252Z,21.04
2019-03-17T03:20:06.231Z,21.05
2019-03-17T03:21:06.218Z,21.01
2019-03-17T03:22:06.487Z,21.08
2019-03-17T03:23:06.202Z,21.05
2019-03-17T03:24:06.190Z,21.06
2019-03-17T03:25:06.175Z,21.01
2019-03-17T03:26:06.169Z,21.04
2019-03-17T03:27:06.160Z,21.04
2019-03-17T03:28:06.429Z,21.04
2019-03-17T03:29:06.136Z,21.11
2019-03-17T03:30:06.122Z,21.01
2019-03-17T03:31:06.111Z,20.96
2019-03-17T03:32:06.100Z,21.04
2019-03-17T03:33:06.091Z,21.04
2019-03-17T03:34:07.807Z,21.04
2019-03-17T03:35:06.078Z,21.06
2019-03-17T03:36:11.307Z,21.01
2019-03-17T03:37:07.040Z,21.08
2019-03-17T03:38:06.034Z,21.05
2019-03-17T03:39:06.020Z,21.02
2019-03-17T03:40:06.339Z,20.98
2019-03-17T03:41:05.998Z,21.04
2019-03-17T03:42:05.988Z,21.04
2019-03-17T03:43:05.974Z,21.04
2019-03-17T03:44:05.971Z,21.06
2019-03-17T03:45:05.973Z,21.06
2019-03-17T03:46:06.267Z,20.91
2019-03-17T03:47:05.931Z,21.02
2019-03-17T03:48:05.920Z,21.08
2019-03-17T03:49:05.908Z,21.01
2019-03-17T03:50:05.898Z,21.01
2019-03-17T03:51:05.887Z,20.98
2019-03-17T03:52:06.161Z,20.95
2019-03-17T03:53:05.867Z,21.05
2019-03-17T03:54:05.854Z,20.95
2019-03-17T03:55:05.842Z,20.99
2019-03-17T03:56:05.833Z,21.04
2019-03-17T03:57:05.826Z,21.01
2019-03-17T03:58:05.814Z,21.02
2019-03-17T03:59:05.798Z,20.99
2019-03-17T04:00:05.789Z,21.01
2019-03-17T04:01:05.775Z,21.05
2019-03-17T04:02:05.768Z,20.98
2019-03-17T04:03:05.755Z,21.06
2019-03-17T04:04:05.765Z,21.04
2019-03-17T04:05:05.753Z,20.90
2019-03-17T04:06:05.721Z,20.99
2019-03-17T04:07:05.707Z,21.05
2019-03-17T04:08:05.697Z,20.99
2019-03-17T04:09:05.691Z,21.05
2019-03-17T04:10:05.943Z,20.96
2019-03-17T04:11:05.664Z,20.98
2019-03-17T04:12:05.659Z,20.96
2019-03-17T04:13:05.643Z,20.90
2019-03-17T04:14:05.631Z,20.95
2019-03-17T04:15:05.618Z,21.01
2019-03-17T04:16:05.613Z,20.98
2019-03-17T04:17:05.596Z,20.90
2019-03-17T04:18:05.593Z,21.01
2019-03-17T04:19:05.575Z,20.91
2019-03-17T04:20:05.562Z,21.01
2019-03-17T04:21:05.552Z,20.90
2019-03-17T04:22:05.871Z,20.93
2019-03-17T04:23:05.531Z,20.95
2019-03-17T04:24:05.520Z,20.98
2019-03-17T04:25:05.507Z,20.99
2019-03-17T04:26:05.495Z,20.91
2019-03-17T04:27:05.485Z,20.93
2019-03-17T04:28:05.747Z,20.95
2019-03-17T04:29:05.462Z,20.93
2019-03-17T04:30:05.454Z,21.01
2019-03-17T04:31:05.566Z,20.93
2019-03-17T04:32:05.438Z,20.96
2019-03-17T04:33:05.426Z,21.01
2019-03-17T04:34:05.429Z,21.01
2019-03-17T04:35:05.425Z,20.87
2019-03-17T04:36:05.390Z,20.99
2019-03-17T04:37:05.373Z,20.96
2019-03-17T04:38:05.363Z,20.95
2019-03-17T04:39:05.351Z,20.95
2019-03-17T04:40:07.554Z,20.96
2019-03-17T04:41:05.331Z,20.95
2019-03-17T04:42:05.318Z,21.01
2019-03-17T04:43:05.322Z,20.99
2019-03-17T04:44:05.295Z,20.96
2019-03-17T04:45:05.284Z,20.96
2019-03-17T04:46:05.549Z,20.91
2019-03-17T04:47:05.262Z,20.98
2019-03-17T04:48:05.253Z,20.99
2019-03-17T04:49:05.240Z,20.96
2019-03-17T04:50:05.228Z,20.99
2019-03-17T04:51:05.239Z,20.99
2019-03-17T04:52:05.215Z,20.90
2019-03-17T04:53:05.194Z,20.99
2019-03-17T04:54:05.190Z,20.95
2019-03-17T04:55:05.172Z,20.91
2019-03-17T04:56:05.163Z,20.95
2019-03-17T04:57:05.169Z,20.99
2019-03-17T04:58:05.159Z,20.93
2019-03-17T04:59:05.129Z,20.90
2019-03-17T05:00:05.117Z,20.99
2019-03-17T05:01:05.106Z,20.96
2019-03-17T05:02:05.099Z,20.98
2019-03-17T05:03:05.085Z,20.90
2019-03-17T05:04:05.079Z,20.99
2019-03-17T05:05:05.061Z,20.95
2019-03-17T05:06:05.053Z,20.96
2019-03-17T05:07:05.040Z,20.98
2019-03-17T05:08:05.027Z,20.98
2019-03-17T05:09:05.020Z,20.98
2019-03-17T05:10:05.300Z,20.95
2019-03-17T05:11:04.994Z,20.99
2019-03-17T05:12:04.986Z,20.98
2019-03-17T05:13:04.973Z,20.96
2019-03-17T05:14:04.961Z,20.96
2019-03-17T05:15:04.951Z,20.98
2019-03-17T05:16:05.220Z,20.96
2019-03-17T05:17:04.928Z,20.91
2019-03-17T05:18:04.920Z,20.98
2019-03-17T05:19:04.905Z,20.93
2019-03-17T05:20:04.897Z,20.93
2019-03-17T05:21:04.882Z,20.96
2019-03-17T05:22:04.895Z,20.96
2019-03-17T05:23:06.065Z,20.96
2019-03-17T05:24:04.856Z,20.95
2019-03-17T05:25:04.841Z,20.98
2019-03-17T05:26:04.829Z,21.02
2019-03-17T05:27:04.823Z,20.96
2019-03-17T05:28:05.080Z,20.91
2019-03-17T05:29:04.793Z,20.95
2019-03-17T05:30:04.783Z,20.89
2019-03-17T05:31:04.773Z,20.93
2019-03-17T05:32:04.762Z,20.95
2019-03-17T05:33:04.749Z,20.96
2019-03-17T05:34:04.746Z,20.95
2019-03-17T05:35:04.728Z,20.90
2019-03-17T05:36:04.715Z,20.93
2019-03-17T05:37:06.413Z,20.98
2019-03-17T05:38:04.695Z,20.93
2019-03-17T05:39:04.683Z,20.96
2019-03-17T05:40:04.679Z,20.99
2019-03-17T05:41:04.661Z,20.95
2019-03-17T05:42:04.653Z,20.96
2019-03-17T05:43:04.639Z,20.93
2019-03-17T05:44:04.627Z,20.93
2019-03-17T05:45:04.615Z,20.96
2019-03-17T05:46:04.881Z,20.87
2019-03-17T05:47:04.593Z,20.90
2019-03-17T05:48:04.582Z,20.91
2019-03-17T05:49:04.572Z,20.96
2019-03-17T05:50:04.562Z,20.99
2019-03-17T05:51:04.551Z,20.95
2019-03-17T05:52:04.814Z,20.90
2019-03-17T05:53:04.525Z,20.93
2019-03-17T05:54:04.515Z,20.93
2019-03-17T05:55:04.503Z,20.98
2019-03-17T05:56:04.492Z,20.91
2019-03-17T05:57:04.482Z,20.95
2019-03-17T05:58:04.493Z,20.96
2019-03-17T05:59:04.460Z,20.99
2019-03-17T06:00:04.449Z,20.90
2019-03-17T06:01:04.438Z,20.96
2019-03-17T06:02:04.427Z,20.96
2019-03-17T06:03:04.416Z,20.99
2019-03-17T06:04:04.750Z,20.83
2019-03-17T06:05:04.392Z,20.91
2019-03-17T06:06:04.382Z,20.83
2019-03-17T06:07:04.371Z,20.96
2019-03-17T06:08:04.359Z,20.98
2019-03-17T06:09:04.352Z,20.93
2019-03-17T06:10:04.344Z,20.89
2019-03-17T06:11:04.326Z,20.91
2019-03-17T06:12:04.317Z,20.96
2019-03-17T06:13:04.304Z,20.96
2019-03-17T06:14:04.293Z,20.96
2019-03-17T06:15:04.280Z,20.96
2019-03-17T06:16:04.277Z,20.95
2019-03-17T06:17:04.261Z,21.01
2019-03-17T06:18:04.247Z,20.99
2019-03-17T06:19:04.237Z,20.99
2019-03-17T06:20:04.225Z,20.98
2019-03-17T06:21:04.218Z,20.95
2019-03-17T06:22:04.491Z,20.98
2019-03-17T06:23:04.192Z,20.93
2019-03-17T06:24:04.186Z,20.96
2019-03-17T06:25:04.175Z,20.95
2019-03-17T06:26:04.160Z,20.96
2019-03-17T06:27:04.147Z,20.91
2019-03-17T06:28:04.157Z,20.96
2019-03-17T06:29:04.125Z,20.93
2019-03-17T06:30:04.115Z,20.91
2019-03-17T06:31:04.106Z,20.96
2019-03-17T06:32:04.097Z,20.89
2019-03-17T06:33:04.084Z,20.98
2019-03-17T06:34:04.364Z,20.99
2019-03-17T06:35:04.058Z,20.95
2019-03-17T06:36:04.053Z,20.95
2019-03-17T06:37:04.045Z,20.96
2019-03-17T06:38:04.025Z,20.91
2019-03-17T06:39:04.016Z,20.96
2019-03-17T06:40:04.293Z,20.95
2019-03-17T06:41:04.447Z,20.95
2019-03-17T06:42:03.979Z,20.96
2019-03-17T06:43:03.968Z,20.95
2019-03-17T06:44:03.958Z,20.99
2019-03-17T06:45:03.949Z,20.99
2019-03-17T06:46:04.281Z,20.95
2019-03-17T06:47:05.877Z,20.98
2019-03-17T06:48:03.918Z,21.01
2019-03-17T06:49:03.903Z,20.90
2019-03-17T06:50:03.891Z,20.91
2019-03-17T06:51:03.881Z,20.99
2019-03-17T06:52:03.879Z,20.98
2019-03-17T06:53:03.859Z,20.98
2019-03-17T06:54:03.848Z,21.04
2019-03-17T06:55:03.845Z,21.01
2019-03-17T06:56:03.825Z,20.95
2019-03-17T06:57:03.814Z,20.93
2019-03-17T06:58:03.809Z,21.02
2019-03-17T06:59:03.796Z,21.02
2019-03-17T07:00:03.779Z,20.95
2019-03-17T07:01:03.772Z,20.93
2019-03-17T07:02:03.756Z,21.01
2019-03-17T07:03:03.754Z,21.04
2019-03-17T07:04:04.055Z,21.08
2019-03-17T07:05:03.726Z,20.90
2019-03-17T07:06:03.714Z,20.91
2019-03-17T07:07:03.703Z,20.89
2019-03-17T07:08:03.691Z,21.08
2019-03-17T07:09:03.682Z,20.99
2019-03-17T07:10:03.947Z,20.95
2019-03-17T07:11:03.657Z,21.02
2019-03-17T07:12:03.650Z,21.02
2019-03-17T07:13:03.642Z,21.06
2019-03-17T07:14:03.623Z,20.96
2019-03-17T07:15:03.615Z,21.05
2019-03-17T07:16:03.618Z,20.96
2019-03-17T07:17:03.590Z,21.04
2019-03-17T07:18:03.579Z,21.05
2019-03-17T07:19:03.569Z,21.01
2019-03-17T07:20:03.557Z,21.11
2019-03-17T07:21:03.547Z,21.01
2019-03-17T07:22:03.863Z,21.01
2019-03-17T07:23:03.526Z,21.04
2019-03-17T07:24:03.512Z,21.06
2019-03-17T07:25:03.502Z,21.11
2019-03-17T07:26:03.490Z,21.11
2019-03-17T07:27:03.478Z,21.02
2019-03-17T07:28:03.504Z,21.08
2019-03-17T07:29:03.461Z,20.99
2019-03-17T07:30:03.450Z,21.06
2019-03-17T07:31:03.434Z,21.05
2019-03-17T07:32:03.425Z,21.09
2019-03-17T07:33:03.416Z,20.98
2019-03-17T07:34:03.679Z,21.13
2019-03-17T07:35:03.389Z,21.14
2019-03-17T07:36:03.383Z,21.13
2019-03-17T07:37:03.369Z,21.08
2019-03-17T07:38:03.358Z,21.09
2019-03-17T07:39:11.719Z,21.06
2019-03-17T07:40:04.356Z,21.17
2019-03-17T07:41:03.329Z,21.11
2019-03-17T07:42:03.313Z,21.11
2019-03-17T07:43:03.307Z,21.08
2019-03-17T07:44:03.300Z,21.08
2019-03-17T07:45:03.281Z,21.11
2019-03-17T07:46:03.577Z,21.11
2019-03-17T07:47:03.257Z,21.13
2019-03-17T07:48:03.245Z,21.11
2019-03-17T07:49:03.237Z,21.11
2019-03-17T07:50:03.227Z,21.11
2019-03-17T07:51:03.213Z,21.11
2019-03-17T07:52:03.210Z,21.11
2019-03-17T07:53:03.190Z,21.09
2019-03-17T07:54:03.265Z,21.13
2019-03-17T07:55:03.168Z,21.13
2019-03-17T07:56:03.157Z,21.11
2019-03-17T07:57:03.146Z,21.14
2019-03-17T07:58:03.456Z,21.17
2019-03-17T07:59:03.128Z,21.14
2019-03-17T08:00:03.113Z,21.11
2019-03-17T08:01:03.102Z,21.16
2019-03-17T08:02:03.091Z,21.08
2019-03-17T08:03:03.088Z,21.17
2019-03-17T08:04:03.074Z,21.11
2019-03-17T08:05:03.059Z,21.16
2019-03-17T08:06:03.050Z,21.14
2019-03-17T08:07:03.035Z,21.14
2019-03-17T08:08:09.359Z,21.23
2019-03-17T08:09:04.287Z,21.14
2019-03-17T08:10:03.008Z,21.17
2019-03-17T08:11:02.993Z,21.14
2019-03-17T08:12:02.987Z,21.14
2019-03-17T08:13:02.969Z,21.20
2019-03-17T08:14:02.957Z,21.17
2019-03-17T08:15:03.218Z,21.17
2019-03-17T08:16:02.937Z,21.14
2019-03-17T08:17:02.925Z,21.17
2019-03-17T08:18:02.914Z,21.17
2019-03-17T08:19:02.902Z,21.14
2019-03-17T08:20:02.891Z,21.19
2019-03-17T08:21:03.155Z,21.19
2019-03-17T08:22:02.868Z,21.20
2019-03-17T08:23:02.860Z,21.21
2019-03-17T08:24:02.847Z,21.19
2019-03-17T08:25:02.837Z,21.19
2019-03-17T08:26:02.826Z,21.19
2019-03-17T08:27:03.140Z,21.13
2019-03-17T08:28:02.802Z,21.21
2019-03-17T08:29:02.790Z,21.19
2019-03-17T08:30:02.781Z,21.20
2019-03-17T08:31:02.769Z,21.26
2019-03-17T08:32:02.759Z,21.20
2019-03-17T08:33:04.336Z,21.20
2019-03-17T08:34:02.738Z,21.20
2019-03-17T08:35:02.724Z,21.26
2019-03-17T08:36:02.713Z,21.26
2019-03-17T08:37:02.710Z,21.21
2019-03-17T08:38:02.691Z,21.21
2019-03-17T08:39:02.960Z,21.21
2019-03-17T08:40:02.669Z,21.27
2019-03-17T08:41:02.696Z,21.30
2019-03-17T08:42:02.649Z,21.16
2019-03-17T08:43:02.638Z,21.32
2019-03-17T08:44:02.627Z,21.23
2019-03-17T08:45:02.637Z,21.32
2019-03-17T08:46:02.605Z,21.24
2019-03-17T08:47:02.598Z,21.26
2019-03-17T08:48:02.582Z,21.30
2019-03-17T08:49:02.568Z,21.26
2019-03-17T08:50:02.563Z,21.30
2019-03-17T08:51:02.824Z,21.27
2019-03-17T08:52:02.536Z,21.21
2019-03-17T08:53:02.530Z,21.21
2019-03-17T08:54:02.514Z,21.32
2019-03-17T08:55:02.510Z,21.29
2019-03-17T08:56:02.494Z,21.34
2019-03-17T08:57:02.504Z,21.26
2019-03-17T08:58:02.470Z,21.29
2019-03-17T08:59:02.461Z,21.32
2019-03-17T09:00:02.449Z,21.38
2019-03-17T09:01:02.435Z,21.39
2019-03-17T09:02:02.425Z,21.32
2019-03-17T09:03:02.738Z,21.36
2019-03-17T09:04:02.402Z,21.32
2019-03-17T09:05:02.393Z,21.35
2019-03-17T09:06:02.380Z,21.38
2019-03-17T09:07:02.369Z,21.36
2019-03-17T09:08:02.358Z,21.38
2019-03-17T09:09:02.639Z,21.35
2019-03-17T09:10:02.338Z,21.32
2019-03-17T09:11:02.327Z,21.38
2019-03-17T09:12:02.319Z,21.32
2019-03-17T09:13:04.281Z,21.34
2019-03-17T09:14:02.293Z,21.41
2019-03-17T09:15:02.569Z,21.34
2019-03-17T09:16:02.272Z,21.35
2019-03-17T09:17:13.803Z,21.34
2019-03-17T09:18:03.250Z,21.50
2019-03-17T09:19:02.321Z,21.41
2019-03-17T09:20:02.230Z,21.36
2019-03-17T09:21:02.498Z,21.45
2019-03-17T09:22:02.204Z,21.48
2019-03-17T09:23:02.195Z,21.51
2019-03-17T09:24:02.185Z,21.42
2019-03-17T09:25:02.175Z,21.41
2019-03-17T09:26:02.160Z,21.46
2019-03-17T09:27:02.168Z,21.44
2019-03-17T09:28:02.138Z,21.45
2019-03-17T09:29:02.127Z,21.50
2019-03-17T09:30:02.115Z,21.45
2019-03-17T09:31:04.797Z,21.48
2019-03-17T09:32:03.455Z,21.54
2019-03-17T09:33:02.084Z,21.50
2019-03-17T09:34:02.072Z,21.56
2019-03-17T09:35:02.059Z,21.56
2019-03-17T09:36:02.049Z,21.45
2019-03-17T09:37:02.037Z,21.50
2019-03-17T09:38:02.359Z,21.48
2019-03-17T09:39:02.015Z,21.48
2019-03-17T09:40:02.011Z,21.53
2019-03-17T09:41:01.992Z,21.50
2019-03-17T09:42:01.982Z,21.56
2019-03-17T09:43:01.971Z,21.59
2019-03-17T09:44:02.255Z,21.54
2019-03-17T09:45:01.949Z,21.54
2019-03-17T09:46:01.938Z,21.54
2019-03-17T09:47:01.926Z,21.54
2019-03-17T09:48:01.918Z,21.60
2019-03-17T09:49:01.905Z,21.57
2019-03-17T09:50:01.902Z,21.57
2019-03-17T09:51:01.881Z,21.56
2019-03-17T09:52:01.869Z,21.61
2019-03-17T09:53:01.859Z,21.59
2019-03-17T09:54:01.851Z,21.57
2019-03-17T09:55:01.840Z,21.72
2019-03-17T09:56:02.116Z,21.63
2019-03-17T09:57:01.815Z,21.72
2019-03-17T09:58:01.805Z,21.59
2019-03-17T09:59:01.796Z,21.63
2019-03-17T10:00:01.786Z,21.63
2019-03-17T10:01:01.770Z,21.61
2019-03-17T10:02:02.037Z,21.63
2019-03-17T10:03:01.749Z,21.60
2019-03-17T10:04:01.737Z,21.63
2019-03-17T10:05:01.728Z,21.61
2019-03-17T10:06:01.719Z,21.67
2019-03-17T10:07:01.704Z,21.67
2019-03-17T10:08:01.702Z,21.63
2019-03-17T10:09:01.685Z,21.54
2019-03-17T10:10:01.677Z,21.63
2019-03-17T10:11:01.662Z,21.57
2019-03-17T10:12:01.647Z,21.60
2019-03-17T10:13:01.640Z,21.63
2019-03-17T10:14:01.648Z,21.64
2019-03-17T10:15:01.616Z,21.60
2019-03-17T10:16:01.605Z,21.66
2019-03-17T10:17:01.594Z,21.61
2019-03-17T10:18:01.585Z,21.71
2019-03-17T10:19:01.576Z,21.72
2019-03-17T10:20:01.858Z,21.72
2019-03-17T10:21:01.549Z,21.63
2019-03-17T10:22:01.539Z,21.69
2019-03-17T10:23:01.527Z,21.67
2019-03-17T10:24:01.518Z,21.71
2019-03-17T10:25:01.506Z,21.74
2019-03-17T10:26:01.769Z,21.69
2019-03-17T10:27:01.482Z,21.66
2019-03-17T10:28:01.472Z,21.64
2019-03-17T10:29:01.461Z,21.64
2019-03-17T10:30:01.454Z,21.67
2019-03-17T10:31:01.440Z,21.63
2019-03-17T10:32:01.692Z,21.61
2019-03-17T10:33:01.415Z,21.67
2019-03-17T10:34:01.410Z,21.74
2019-03-17T10:35:01.395Z,21.71
2019-03-17T10:36:01.382Z,21.63
2019-03-17T10:37:01.371Z,21.67
2019-03-17T10:38:01.639Z,21.63
2019-03-17T10:39:11.848Z,21.67
2019-03-17T10:40:02.338Z,21.67
2019-03-17T10:41:01.327Z,21.54
2019-03-17T10:42:01.322Z,21.67
2019-03-17T10:43:01.307Z,21.66
2019-03-17T10:44:01.620Z,21.66
2019-03-17T10:45:01.285Z,21.67
2019-03-17T10:46:01.271Z,21.67
2019-03-17T10:47:01.261Z,21.66
2019-03-17T10:48:01.252Z,21.69
2019-03-17T10:49:01.240Z,21.67
2019-03-17T10:50:01.570Z,21.63
2019-03-17T10:51:01.217Z,21.66
2019-03-17T10:52:01.205Z,21.63
2019-03-17T10:53:01.196Z,21.64
2019-03-17T10:54:01.184Z,21.61
2019-03-17T10:55:01.172Z,21.69
2019-03-17T10:56:01.176Z,21.66
2019-03-17T10:57:01.153Z,21.72
2019-03-17T10:58:01.141Z,21.66
2019-03-17T10:59:01.131Z,21.63
2019-03-17T11:00:01.117Z,21.66
2019-03-17T11:01:01.107Z,21.66
2019-03-17T11:02:01.371Z,21.74
2019-03-17T11:03:01.084Z,21.69
2019-03-17T11:04:01.073Z,21.66
2019-03-17T11:05:01.062Z,21.69
2019-03-17T11:06:01.052Z,21.71
2019-03-17T11:07:01.043Z,21.69
2019-03-17T11:08:01.051Z,21.72
2019-03-17T11:09:01.089Z,21.71
2019-03-17T11:10:01.006Z,21.69
2019-03-17T11:11:00.994Z,21.69
2019-03-17T11:12:00.984Z,21.72
2019-03-17T11:13:00.973Z,21.72
2019-03-17T11:14:01.241Z,21.67
2019-03-17T11:15:00.954Z,21.78
2019-03-17T11:16:00.940Z,21.66
2019-03-17T11:17:00.928Z,21.67
2019-03-17T11:18:00.920Z,21.69
2019-03-17T11:19:00.907Z,21.69
2019-03-17T11:20:00.908Z,21.72
2019-03-17T11:21:00.884Z,21.71
2019-03-17T11:22:00.873Z,21.64
2019-03-17T11:23:00.861Z,21.72
2019-03-17T11:24:00.850Z,21.71
2019-03-17T11:25:00.839Z,21.67
2019-03-17T11:26:01.107Z,21.63
2019-03-17T11:27:00.820Z,21.66
2019-03-17T11:28:00.807Z,21.63
2019-03-17T11:29:00.795Z,21.63
2019-03-17T11:30:00.787Z,21.60
2019-03-17T11:31:00.774Z,21.57
2019-03-17T11:32:01.102Z,21.63
2019-03-17T11:33:00.777Z,21.60
2019-03-17T11:34:00.740Z,21.56
2019-03-17T11:35:00.734Z,21.66
2019-03-17T11:36:00.717Z,21.61
2019-03-17T11:37:00.719Z,21.59
2019-03-17T11:38:00.980Z,21.57
2019-03-17T11:39:00.685Z,21.59
2019-03-17T11:40:00.675Z,21.60
2019-03-17T11:41:00.663Z,21.60
2019-03-17T11:42:00.651Z,21.59
2019-03-17T11:43:00.641Z,21.56
2019-03-17T11:44:00.907Z,21.60
2019-03-17T11:45:00.622Z,21.57
2019-03-17T11:46:00.607Z,21.61
2019-03-17T11:47:00.595Z,21.63
2019-03-17T11:48:00.591Z,21.54
2019-03-17T11:49:00.573Z,21.56
2019-03-17T11:50:00.572Z,21.54
2019-03-17T11:51:00.552Z,21.57
2019-03-17T11:52:00.541Z,21.59
2019-03-17T11:53:00.530Z,21.60
2019-03-17T11:54:00.519Z,21.57
2019-03-17T11:55:00.511Z,21.59
2019-03-17T11:56:00.781Z,21.57
2019-03-17T11:57:00.485Z,21.54
2019-03-17T11:58:00.474Z,21.53
2019-03-17T11:59:00.470Z,21.51
2019-03-17T12:00:00.454Z,21.51
2019-03-17T12:01:00.442Z,21.51
2019-03-17T12:02:00.438Z,21.54
2019-03-17T12:03:00.422Z,21.46
2019-03-17T12:04:00.407Z,21.51
2019-03-17T12:05:00.397Z,21.46
2019-03-17T12:06:00.385Z,21.53
2019-03-17T12:07:00.375Z,21.54
2019-03-17T12:08:00.642Z,21.51
2019-03-17T12:09:00.353Z,21.53
2019-03-17T12:10:00.447Z,21.50
2019-03-17T12:11:00.331Z,21.46
2019-03-17T12:12:00.320Z,21.46
2019-03-17T12:13:00.308Z,21.53
2019-03-17T12:14:00.319Z,21.51
2019-03-17T12:15:00.375Z,21.46
2019-03-17T12:16:00.274Z,21.48
2019-03-17T12:17:00.264Z,21.54
2019-03-17T12:18:00.253Z,21.50
2019-03-17T12:19:00.242Z,21.53
2019-03-17T12:20:00.554Z,21.45
2019-03-17T12:21:00.219Z,21.50
2019-03-17T12:22:09.042Z,21.44
2019-03-17T12:23:01.195Z,21.45
2019-03-17T12:24:00.186Z,21.38
2019-03-17T12:25:00.369Z,21.38
2019-03-17T12:26:00.455Z,21.38
2019-03-17T12:27:00.153Z,21.45
2019-03-17T12:28:00.143Z,21.41
2019-03-17T12:29:00.135Z,21.41
2019-03-17T12:30:00.178Z,21.41
2019-03-17T12:31:01.995Z,21.39
2019-03-17T12:32:00.383Z,21.42
2019-03-17T12:33:00.093Z,21.42
2019-03-17T12:34:00.076Z,21.45
2019-03-17T12:35:00.067Z,21.50
2019-03-17T12:36:00.052Z,21.54
2019-03-17T12:37:00.042Z,21.36
2019-03-17T12:38:00.037Z,21.44
2019-03-17T12:39:00.020Z,21.44
2019-03-17T12:40:02.711Z,21.38
2019-03-17T12:40:59.997Z,21.42
2019-03-17T12:41:59.990Z,21.44
2019-03-17T12:43:00.031Z,21.44
2019-03-17T12:44:00.243Z,21.51
2019-03-17T12:44:59.953Z,21.46
2019-03-17T12:45:59.942Z,21.39
2019-03-17T12:46:59.931Z,21.42
2019-03-17T12:47:59.921Z,21.44
2019-03-17T12:48:59.911Z,21.46
2019-03-17T12:50:00.390Z,21.41
2019-03-17T12:50:59.896Z,21.42
2019-03-17T12:51:59.876Z,21.41